Time;durP1;ratioP1;P1;durP2;ratioP2;P2;SDS_P1;SDS_P2;PMS_P1;PMS_P2;Temp;Humidity;BMP_temperature;BMP_pressure;BME280_temperature;BME280_humidity;BME280_pressure;Samples;Min_cycle;Max_cycle;Signal;HPM_P1;HPM_P2
2021/01/29 00:00:24;;;;;;;4.37;3.98;;;;;;;0.13;81.09;99302.06;1788780;79;20946;-78
2021/01/29 00:02:53;;;;;;;4.50;4.17;;;;;;;0.12;80.99;99310.70;1791047;79;20952;-79
2021/01/29 00:05:27;;;;;;;4.45;4.00;;;;;;;0.13;80.17;99324.80;1775591;79;21011;-79
2021/01/29 00:07:59;;;;;;;5.85;4.37;;;;;;;0.14;79.78;99317.94;1773993;79;20978;-82
2021/01/29 00:10:33;;;;;;;7.17;5.17;;;;;;;0.15;79.37;99323.01;1708227;82;21397;-80
2021/01/29 00:13:04;;;;;;;6.30;4.78;;;;;;;0.15;79.16;99311.41;1705841;82;21521;-79
2021/01/29 00:15:43;;;;;;;6.17;4.55;;;;;;;0.21;78.39;99327.10;1846397;77;23341;-80
2021/01/29 00:18:12;;;;;;;6.03;4.55;;;;;;;0.16;78.41;99335.47;1824021;78;20936;-81
2021/01/29 00:20:41;;;;;;;5.90;4.87;;;;;;;0.18;78.50;99345.28;1823993;78;21653;-82
2021/01/29 00:23:11;;;;;;;5.70;4.87;;;;;;;0.24;78.25;99335.16;1824057;78;20960;-81
2021/01/29 00:25:44;;;;;;;7.15;5.22;;;;;;;0.24;78.04;99356.62;1824436;78;20944;-80
2021/01/29 00:28:12;;;;;;;9.03;5.65;;;;;;;0.23;77.63;99339.95;1823503;78;20938;-79
2021/01/29 00:30:40;;;;;;;7.05;4.87;;;;;;;0.23;77.52;99339.48;1824323;78;20916;-81
2021/01/29 00:33:10;;;;;;;5.22;3.80;;;;;;;0.22;77.30;99365.31;1823888;78;21891;-81
2021/01/29 00:35:39;;;;;;;5.12;4.60;;;;;;;0.22;77.31;99353.72;1823783;78;21030;-80
2021/01/29 00:38:07;;;;;;;5.58;4.95;;;;;;;0.20;77.14;99362.36;1823903;78;20964;-80
2021/01/29 00:40:36;;;;;;;6.95;5.28;;;;;;;0.17;77.12;99356.02;1823932;78;21055;-80
2021/01/29 00:43:05;;;;;;;6.72;4.80;;;;;;;0.15;77.14;99366.83;1823944;78;21039;-79
2021/01/29 00:45:36;;;;;;;5.80;5.22;;;;;;;0.16;76.91;99363.38;1823917;78;21382;-79
2021/01/29 00:48:08;;;;;;;4.70;4.25;;;;;;;0.15;76.84;99362.13;1824080;78;21363;-79
2021/01/29 00:50:36;;;;;;;6.58;5.42;;;;;;;0.14;76.80;99373.35;1823924;78;21028;-80
2021/01/29 00:53:06;;;;;;;6.00;5.08;;;;;;;0.11;76.83;99371.73;1823947;78;21019;-78
2021/01/29 00:55:34;;;;;;;6.37;5.28;;;;;;;0.08;76.80;99371.00;1823962;78;21055;-79
2021/01/29 00:58:04;;;;;;;5.70;4.70;;;;;;;0.08;76.87;99383.88;1824075;78;21401;-81
2021/01/29 01:00:52;;;;;;;6.85;4.95;;;;;;;0.06;76.84;99374.91;1823867;78;20912;-79
2021/01/29 01:03:21;;;;;;;6.10;5.47;;;;;;;0.02;76.69;99377.66;1823784;78;20928;-82
2021/01/29 01:05:51;;;;;;;6.87;4.90;;;;;;;0.03;76.76;99380.64;1823943;78;20936;-77
2021/01/29 01:08:24;;;;;;;6.75;4.40;;;;;;;0.03;76.75;99390.95;1814275;78;20920;-78
2021/01/29 01:10:56;;;;;;;7.28;4.28;;;;;;;0.03;76.26;99379.36;1790746;78;21912;-80
2021/01/29 01:13:41;;;;;;;6.30;4.60;;;;;;;0.03;76.18;99403.84;1763687;78;21217;-81
2021/01/29 01:16:52;;;;;;;5.25;4.67;;;;;;;0.06;76.12;99406.30;1816232;79;22634;-80
2021/01/29 01:19:25;;;;;;;5.00;3.80;;;;;;;-0.01;76.09;99401.81;1776142;80;21050;-81
2021/01/29 01:21:55;;;;;;;6.17;4.45;;;;;;;-0.01;76.05;99396.20;1788720;80;21882;-82
2021/01/29 01:24:30;;;;;;;6.95;5.03;;;;;;;0.00;76.12;99415.11;1777323;80;20963;-81
2021/01/29 01:26:58;;;;;;;7.80;5.15;;;;;;;-0.03;76.05;99422.47;1789369;80;21005;-80
2021/01/29 01:29:34;;;;;;;5.97;4.08;;;;;;;-0.03;76.01;99418.60;1784646;80;21705;-80
2021/01/29 01:32:02;;;;;;;4.25;3.72;;;;;;;-0.05;75.66;99407.97;1790037;80;21349;-78
2021/01/29 01:34:47;;;;;;;6.55;4.50;;;;;;;-0.06;75.48;99421.76;1749197;80;21285;-76
2021/01/29 01:37:17;;;;;;;6.75;5.08;;;;;;;-0.07;75.79;99431.23;1792250;80;21045;-75
2021/01/29 01:39:49;;;;;;;6.97;4.62;;;;;;;-0.08;75.78;99417.11;1772146;80;21507;-79
2021/01/29 01:42:18;;;;;;;5.92;4.28;;;;;;;-0.09;75.67;99418.84;1789404;80;21001;-75
2021/01/29 01:44:46;;;;;;;11.57;5.20;;;;;;;-0.10;75.66;99433.06;1789342;80;21054;-76
2021/01/29 01:47:29;;;;;;;9.28;5.12;;;;;;;-0.12;75.69;99431.82;1788726;80;21394;-76
2021/01/29 01:50:20;;;;;;;5.40;3.33;;;;;;;-0.10;75.58;99425.34;1711039;80;20966;-78
2021/01/29 01:52:48;;;;;;;4.95;4.47;;;;;;;-0.11;75.46;99434.80;1758369;80;20958;-76
2021/01/29 01:55:26;;;;;;;5.35;4.10;;;;;;;-0.12;75.52;99440.01;1788101;80;20951;-76
2021/01/29 01:57:59;;;;;;;5.90;4.00;;;;;;;-0.11;75.49;99437.80;1786398;80;21034;-80
2021/01/29 02:00:29;;;;;;;6.50;4.22;;;;;;;-0.13;75.48;99432.73;1787738;80;22707;-79
2021/01/29 02:03:05;;;;;;;5.00;4.47;;;;;;;-0.15;75.52;99440.95;1786532;80;21033;-77
2021/01/29 02:05:51;;;;;;;6.80;4.42;;;;;;;-0.14;75.48;99436.64;1789562;80;20907;-79
2021/01/29 02:08:22;;;;;;;6.37;5.05;;;;;;;-0.15;75.15;99452.55;1789522;79;20975;-79
2021/01/29 02:10:59;;;;;;;4.40;3.90;;;;;;;-0.18;75.39;99433.77;1789285;80;20939;-78
2021/01/29 02:13:32;;;;;;;7.70;4.58;;;;;;;-0.18;75.12;99447.94;1788111;80;21383;-76
2021/01/29 02:16:19;;;;;;;6.15;4.28;;;;;;;-0.21;75.07;99444.58;1752416;80;20962;-77
2021/01/29 02:19:04;;;;;;;4.85;4.10;;;;;;;-0.24;75.14;99447.27;1786242;80;21061;-75
2021/01/29 02:21:50;;;;;;;5.50;4.97;;;;;;;-0.25;75.32;99445.57;1784835;80;21093;-76
2021/01/29 02:25:12;;;;;;;9.10;5.10;;;;;;;-0.23;75.41;99447.66;1848517;76;22166;-79
2021/01/29 02:27:59;;;;;;;9.68;4.95;;;;;;;-0.23;75.24;99455.83;1775643;79;22987;-79
2021/01/29 02:31:10;;;;;;;7.03;4.90;;;;;;;-0.28;75.05;99453.88;1747027;82;20995;-79
2021/01/29 02:34:27;;;;;;;4.47;4.03;;;;;;;-0.28;75.03;99460.31;1749804;82;21406;-80
2021/01/29 02:37:43;;;;;;;9.88;5.25;;;;;;;-0.29;75.04;99456.03;1747926;82;20931;-77
2021/01/29 02:40:53;;;;;;;7.58;5.90;;;;;;;-0.27;75.05;99462.84;1813651;78;20926;-80
2021/01/29 02:43:36;;;;;;;5.60;5.00;;;;;;;-0.33;74.98;99474.64;1756104;80;20926;-79
2021/01/29 02:46:56;;;;;;;5.60;4.60;;;;;;;-0.35;75.06;99476.88;1729437;80;22367;-77
2021/01/29 02:50:18;;;;;;;6.80;4.70;;;;;;;-0.38;74.81;99466.20;1779982;80;21006;-78
2021/01/29 02:53:31;;;;;;;6.67;4.83;;;;;;;-0.40;74.89;99488.63;1784335;79;21025;-80
2021/01/29 02:56:39;;;;;;;9.03;6.25;;;;;;;-0.44;75.08;99482.72;1780111;80;20970;-80
2021/01/29 02:59:57;;;;;;;8.45;5.10;;;;;;;-0.45;75.08;99493.89;1780686;80;20982;-79
2021/01/29 03:02:33;;;;;;;8.20;6.55;;;;;;;-0.45;75.02;99492.61;1783149;80;22708;-80
2021/01/29 03:05:21;;;;;;;8.10;5.92;;;;;;;-0.43;75.13;99500.30;1783630;79;20950;-82
2021/01/29 03:08:04;;;;;;;6.03;5.03;;;;;;;-0.40;75.20;99501.92;1784228;79;20934;-80
2021/01/29 03:11:11;;;;;;;7.45;5.12;;;;;;;-0.38;75.10;99505.29;1784301;80;20953;-81
2021/01/29 03:14:18;;;;;;;7.55;5.87;;;;;;;-0.40;74.93;99516.09;1784601;80;20965;-80
2021/01/29 03:17:12;;;;;;;9.80;5.50;;;;;;;-0.45;74.67;99504.20;1784258;80;21626;-81
2021/01/29 03:20:34;;;;;;;5.62;4.62;;;;;;;-0.47;74.83;99526.61;1784179;80;20946;-78
2021/01/29 03:23:29;;;;;;;6.35;5.15;;;;;;;-0.46;74.77;99519.72;1784277;79;21337;-80
2021/01/29 03:26:20;;;;;;;5.67;4.70;;;;;;;-0.47;74.73;99524.45;1784046;79;20986;-77
2021/01/29 03:29:11;;;;;;;6.08;5.33;;;;;;;-0.50;74.86;99521.55;1784170;80;21001;-82
2021/01/29 03:31:58;;;;;;;7.83;6.00;;;;;;;-0.51;75.00;99534.45;1784160;79;21198;-78
2021/01/29 03:34:50;;;;;;;8.10;6.28;;;;;;;-0.52;75.04;99525.89;1784148;79;20927;-79
2021/01/29 03:38:05;;;;;;;6.47;5.40;;;;;;;-0.52;74.68;99539.22;1784096;80;20998;-79
2021/01/29 03:41:15;;;;;;;6.58;5.60;;;;;;;-0.54;74.87;99544.86;1765560;80;20942;-79
2021/01/29 03:44:26;;;;;;;6.75;6.05;;;;;;;-0.57;75.40;99535.96;1784359;79;21015;-79
2021/01/29 03:47:29;;;;;;;6.22;5.10;;;;;;;-0.59;75.76;99548.88;1784208;80;21046;-79
2021/01/29 03:50:47;;;;;;;6.80;4.85;;;;;;;-0.59;76.17;99551.45;1852522;77;22389;-77
2021/01/29 03:54:07;;;;;;;5.87;4.22;;;;;;;-0.64;76.27;99555.91;1750558;82;21467;-80
2021/01/29 03:57:17;;;;;;;6.60;4.78;;;;;;;-0.68;76.42;99568.03;1820332;78;21403;-77
2021/01/29 04:00:36;;;;;;;5.25;4.75;;;;;;;-0.72;76.50;99566.43;1750226;82;20961;-77
2021/01/29 04:04:04;;;;;;;5.03;4.53;;;;;;;-0.72;76.88;99573.31;1820213;78;21025;-78
2021/01/29 04:06:50;;;;;;;5.05;4.53;;;;;;;-0.74;77.02;99573.81;1715346;82;20913;-77
2021/01/29 04:09:55;;;;;;;5.55;4.50;;;;;;;-0.75;77.18;99578.12;1780251;78;21045;-77
2021/01/29 04:12:45;;;;;;;4.40;4.08;;;;;;;-0.76;77.06;99587.16;1815489;78;21753;-79
2021/01/29 04:15:32;;;;;;;4.83;4.03;;;;;;;-0.79;77.02;99585.53;1787333;78;21037;-78
2021/01/29 04:18:25;;;;;;;5.92;5.20;;;;;;;-0.81;77.01;99579.59;1750273;81;20946;-83
2021/01/29 04:21:19;;;;;;;7.05;4.67;;;;;;;-0.82;76.67;99582.19;1812147;78;21018;-78
2021/01/29 04:24:13;;;;;;;5.37;4.87;;;;;;;-0.84;76.38;99582.27;1750370;81;20957;-81
2021/01/29 04:26:46;;;;;;;5.87;5.22;;;;;;;-0.81;76.26;99595.48;1820260;78;21380;-78
2021/01/29 04:29:19;;;;;;;10.32;6.35;;;;;;;-0.84;75.99;99581.81;1820224;78;21000;-82
2021/01/29 04:31:49;;;;;;;7.55;6.25;;;;;;;-0.82;75.82;99588.63;1750282;81;20958;-80
2021/01/29 04:34:26;;;;;;;7.50;6.45;;;;;;;-0.81;75.55;99589.05;1820165;78;20923;-77
2021/01/29 04:36:54;;;;;;;7.80;5.85;;;;;;;-0.82;75.62;99594.64;1750362;81;20977;-78
2021/01/29 04:39:32;;;;;;;7.58;5.40;;;;;;;-0.79;75.34;99597.11;1820198;78;21386;-77
2021/01/29 04:42:58;;;;;;;10.60;7.45;;;;;;;-0.78;75.21;99607.80;1819969;78;20930;-78
2021/01/29 04:45:55;;;;;;;;;;;;;;;-0.79;75.42;99610.44;1752904;81;20949;-77
2021/01/29 04:48:48;;;;;;;9.08;6.85;;;;;;;-0.79;75.30;99615.58;1750262;81;20212;-80
2021/01/29 04:51:34;;;;;;;12.00;7.25;;;;;;;-0.77;75.13;99623.66;1820171;78;20970;-79
2021/01/29 04:54:39;;;;;;;9.00;7.03;;;;;;;-0.76;75.07;99622.75;1750834;81;21385;-79
2021/01/29 04:57:41;;;;;;;7.92;7.05;;;;;;;-0.75;75.02;99631.34;1821455;78;21392;-78
2021/01/29 05:00:37;;;;;;;7.85;6.53;;;;;;;-0.72;74.92;99631.23;1751093;81;21522;-80
2021/01/29 05:03:30;;;;;;;7.75;6.25;;;;;;;-0.71;74.75;99621.33;1776416;78;20934;-78
2021/01/29 05:07:05;;;;;;;11.48;7.20;;;;;;;-0.72;74.47;99619.66;1749980;81;21372;-80
2021/01/29 05:10:42;;;;;;;11.03;8.43;;;;;;;-0.73;74.72;99629.11;1795612;78;21502;-77
2021/01/29 05:13:47;;;;;;;8.88;7.70;;;;;;;-0.73;74.50;99630.40;1675402;84;21045;-79
2021/01/29 05:16:43;;;;;;;13.35;9.60;;;;;;;-0.72;74.48;99631.23;1675525;84;21043;-80
2021/01/29 05:19:30;;;;;;;10.03;7.80;;;;;;;-0.74;74.68;99642.02;1698746;84;21669;-78
2021/01/29 05:22:49;;;;;;;10.03;7.75;;;;;;;-0.69;74.70;99647.45;1852344;77;22706;-77
2021/01/29 05:25:41;;;;;;;16.77;10.32;;;;;;;-0.73;74.79;99658.72;1820228;78;20903;-77
2021/01/29 05:28:25;;;;;;;14.85;9.43;;;;;;;-0.71;74.64;99658.65;1819997;78;20966;-80
2021/01/29 05:31:30;;;;;;;11.90;8.40;;;;;;;-0.68;74.50;99664.56;1820070;78;21563;-79
2021/01/29 05:34:37;;;;;;;14.35;9.98;;;;;;;-0.67;74.09;99666.27;1819995;78;21017;-82
2021/01/29 05:37:44;;;;;;;11.30;8.38;;;;;;;-0.68;74.01;99676.59;1820261;78;20931;-78
2021/01/29 05:40:59;;;;;;;10.95;8.68;;;;;;;-0.68;73.99;99683.88;1820105;78;20942;-77
2021/01/29 05:43:51;;;;;;;13.30;8.65;;;;;;;-0.66;73.87;99688.53;1820029;78;21258;-77
2021/01/29 05:46:41;;;;;;;14.85;9.18;;;;;;;-0.66;73.82;99701.86;1820087;78;20998;-79
2021/01/29 05:49:31;;;;;;;10.93;8.60;;;;;;;-0.65;73.72;99705.66;1791292;78;20974;-77
2021/01/29 05:52:20;;;;;;;11.03;7.65;;;;;;;-0.59;73.54;99696.92;1849197;74;22735;-76
2021/01/29 05:55:44;;;;;;;9.10;7.90;;;;;;;-0.64;73.65;99708.64;1819817;79;21021;-79
2021/01/29 05:58:33;;;;;;;9.33;7.50;;;;;;;;;;1818605;79;21216;-78
2021/01/29 06:01:26;;;;;;;10.08;6.85;;;;;;;-0.60;73.41;99709.41;1818304;79;20993;-80
2021/01/29 06:04:06;;;;;;;9.75;7.25;;;;;;;-0.62;72.79;99709.89;1818999;79;21364;-80
2021/01/29 06:07:05;;;;;;;9.40;6.78;;;;;;;-0.66;72.77;99691.56;1818412;79;21093;-77
2021/01/29 06:10:04;;;;;;;13.65;7.55;;;;;;;-0.67;72.88;99704.88;1818984;79;20938;-79
2021/01/29 06:12:56;;;;;;;14.73;9.80;;;;;;;-0.66;72.70;99705.72;1818544;77;21203;-76
2021/01/29 06:15:54;;;;;;;17.05;12.23;;;;;;;-0.66;72.74;99710.87;1816216;79;20966;-77
2021/01/29 06:18:43;;;;;;;9.93;7.53;;;;;;;-0.64;72.89;99719.39;1817783;79;20935;-78
2021/01/29 06:21:47;;;;;;;9.28;6.70;;;;;;;-0.59;72.71;99725.70;1814634;77;20919;-81
2021/01/29 06:24:58;;;;;;;13.55;8.90;;;;;;;-0.59;72.44;99723.12;1817788;77;20930;-79
2021/01/29 06:28:00;;;;;;;13.55;8.73;;;;;;;-0.62;72.31;99724.06;1819259;79;21358;-76
2021/01/29 06:31:08;;;;;;;11.68;7.78;;;;;;;-0.59;72.07;99725.25;1818092;79;21054;-74
2021/01/29 06:34:17;;;;;;;11.97;8.43;;;;;;;-0.59;72.04;99716.69;1818041;77;20934;-78
2021/01/29 06:37:18;;;;;;;7.25;6.53;;;;;;;-0.61;72.64;99718.45;1818033;78;20942;-79
2021/01/29 06:40:37;;;;;;;9.33;6.70;;;;;;;-0.53;73.03;99721.66;1846070;76;22391;-77
2021/01/29 06:43:35;;;;;;;7.60;6.10;;;;;;;-0.53;73.43;99720.38;1818407;78;20934;-78
2021/01/29 06:46:29;;;;;;;9.90;6.58;;;;;;;-0.50;73.37;99724.97;1818053;77;21131;-78
2021/01/29 06:49:21;;;;;;;9.73;5.97;;;;;;;-0.50;73.55;99720.28;1818231;79;21071;-78
2021/01/29 06:52:15;;;;;;;11.10;7.87;;;;;;;-0.47;73.44;99723.62;1817841;79;21115;-78
2021/01/29 06:55:30;;;;;;;13.13;8.20;;;;;;;-0.47;73.34;99722.33;1817921;78;20926;-78
2021/01/29 06:58:18;;;;;;;7.72;6.95;;;;;;;-0.49;73.06;99729.25;1818129;78;20998;-78
2021/01/29 07:01:09;;;;;;;7.05;6.37;;;;;;;-0.48;73.05;99724.48;1817970;79;21810;-81
2021/01/29 07:04:08;;;;;;;8.78;7.72;;;;;;;-0.45;72.47;99730.83;1817925;79;21033;-79
2021/01/29 07:06:53;;;;;;;8.18;6.15;;;;;;;-0.43;72.28;99738.06;1817957;78;21389;-76
2021/01/29 07:09:43;;;;;;;;;;;;;;;-0.39;71.88;99734.13;1820709;78;20911;-82
2021/01/29 07:12:36;;;;;;;10.50;8.18;;;;;;;-0.35;71.74;99726.72;1818063;79;20109;-80
2021/01/29 07:15:28;;;;;;;7.95;7.00;;;;;;;-0.32;71.67;99724.88;1818016;77;21365;-80
2021/01/29 07:18:18;;;;;;;8.55;6.87;;;;;;;-0.22;71.28;99711.30;1817947;77;21024;-82
2021/01/29 07:21:18;;;;;;;8.38;6.95;;;;;;;-0.15;70.73;99723.09;1817989;79;21005;-81
2021/01/29 07:23:58;;;;;;;10.00;7.12;;;;;;;-0.07;70.30;99726.28;1818049;79;21034;-82
2021/01/29 07:26:37;;;;;;;9.35;6.95;;;;;;;0.01;69.62;99729.06;1817942;79;21013;-78
2021/01/29 07:29:29;;;;;;;7.78;6.60;;;;;;;0.07;69.65;99729.72;1818068;77;21618;-80
2021/01/29 07:32:50;;;;;;;9.65;7.08;;;;;;;0.11;69.66;99727.86;1817931;79;20954;-76
2021/01/29 07:35:42;;;;;;;10.50;7.33;;;;;;;0.14;69.24;99732.49;1817941;79;20946;-79
2021/01/29 07:38:45;;;;;;;11.00;7.03;;;;;;;0.14;69.35;99729.08;1819454;78;20927;-80
2021/01/29 07:41:30;;;;;;;15.28;10.15;;;;;;;0.15;69.24;99729.46;1833074;77;20914;-80
2021/01/29 07:44:18;;;;;;;9.13;7.08;;;;;;;0.13;69.08;99735.11;1833085;78;21186;-81
2021/01/29 07:47:13;;;;;;;10.95;7.87;;;;;;;0.10;69.18;99733.93;1833563;78;21044;-73
2021/01/29 07:49:56;;;;;;;11.25;7.15;;;;;;;0.10;69.31;99728.77;1813299;78;20930;-76
2021/01/29 07:52:52;;;;;;;9.88;7.67;;;;;;;0.10;69.01;99729.61;1812587;78;20939;-78
2021/01/29 07:55:26;;;;;;;8.75;7.58;;;;;;;0.08;69.00;99735.25;1813066;78;20967;-76
2021/01/29 07:58:21;;;;;;;10.03;7.92;;;;;;;0.09;68.82;99738.67;1762719;79;21502;-76
2021/01/29 08:01:35;;;;;;;13.53;8.13;;;;;;;0.06;68.89;99726.72;1812670;78;21014;-74
2021/01/29 08:04:39;;;;;;;10.43;7.67;;;;;;;0.04;69.00;99730.25;1812930;78;20974;-74
2021/01/29 08:07:36;;;;;;;10.43;8.48;;;;;;;0.07;68.94;99721.98;1812855;79;21140;-75
2021/01/29 08:10:11;;;;;;;8.45;7.62;;;;;;;0.08;68.83;99737.00;1788023;79;21053;-72
2021/01/29 08:12:50;;;;;;;11.43;7.78;;;;;;;0.07;68.74;99718.54;1812929;78;22274;-69
2021/01/29 08:15:38;;;;;;;9.23;6.92;;;;;;;0.06;68.84;99723.31;1812719;79;21002;-75
2021/01/29 08:18:37;;;;;;;10.90;8.35;;;;;;;0.07;68.69;99728.43;1812724;79;21034;-75
2021/01/29 08:21:45;;;;;;;13.28;9.03;;;;;;;0.09;68.96;99729.65;1812756;78;21002;-71
2021/01/29 08:25:01;;;;;;;12.28;9.00;;;;;;;0.18;68.79;99729.39;1812858;79;20919;-72
2021/01/29 08:27:49;;;;;;;12.18;8.03;;;;;;;0.26;68.59;99732.99;1813080;78;21897;-72
2021/01/29 08:31:19;;;;;;;12.98;8.95;;;;;;;0.31;68.22;99735.84;1812729;78;21013;-72
2021/01/29 08:34:10;;;;;;;10.10;7.47;;;;;;;0.30;68.11;99742.32;1764270;79;20950;-72
2021/01/29 08:37:16;;;;;;;12.07;8.55;;;;;;;0.23;67.92;99740.84;1793342;79;21529;-73
2021/01/29 08:39:48;;;;;;;12.33;7.50;;;;;;;0.21;68.25;99747.32;1815727;78;20888;-73
2021/01/29 08:42:37;;;;;;;7.40;6.47;;;;;;;0.23;68.10;99746.83;1798862;77;21208;-71
2021/01/29 08:45:49;;;;;;;11.28;7.55;;;;;;;0.24;67.75;99748.50;1817349;77;21468;-71
2021/01/29 08:48:48;;;;;;;12.37;7.78;;;;;;;0.28;67.94;99745.39;1817312;79;21521;-73
2021/01/29 08:51:27;;;;;;;17.57;8.23;;;;;;;0.34;67.67;99758.94;1817320;77;21043;-71
2021/01/29 08:54:36;;;;;;;11.22;8.60;;;;;;;0.36;67.71;99739.09;1817366;79;21116;-73
2021/01/29 08:57:31;;;;;;;7.62;6.80;;;;;;;0.46;67.72;99735.77;1817403;79;21338;-71
2021/01/29 08:59:59;;;;;;;10.28;8.25;;;;;;;0.52;67.33;99736.02;1817497;79;20994;-72
2021/01/29 09:02:44;;;;;;;13.00;9.33;;;;;;;0.55;67.37;99732.88;1814162;79;20994;-72
2021/01/29 09:05:15;;;;;;;13.70;9.45;;;;;;;0.64;67.27;99726.56;1814905;79;20918;-71
2021/01/29 09:07:43;;;;;;;12.75;8.75;;;;;;;0.70;66.69;99716.50;1817272;78;20926;-72
2021/01/29 09:10:44;;;;;;;9.35;6.90;;;;;;;0.71;66.58;99713.88;1817440;79;22089;-71
2021/01/29 09:13:16;;;;;;;15.13;9.50;;;;;;;0.73;66.38;99715.93;1817285;79;20923;-71
2021/01/29 09:16:25;;;;;;;10.85;8.38;;;;;;;0.74;66.55;99721.50;1817353;79;20907;-72
2021/01/29 09:19:15;;;;;;;12.15;8.10;;;;;;;0.81;66.80;99722.14;1817182;77;21085;-74
2021/01/29 09:22:04;;;;;;;10.58;7.55;;;;;;;0.92;66.59;99725.64;1811108;77;21069;-73
2021/01/29 09:24:46;;;;;;;9.40;7.22;;;;;;;0.99;65.88;99724.06;1796452;79;21223;-73
2021/01/29 09:27:57;;;;;;;13.08;9.28;;;;;;;1.02;65.28;99721.40;1816817;79;21054;-72
2021/01/29 09:30:56;;;;;;;10.78;8.35;;;;;;;1.01;65.05;99724.02;1817284;78;21364;-73
2021/01/29 09:33:38;;;;;;;12.63;8.05;;;;;;;1.02;65.30;99726.98;1816860;77;20891;-74
2021/01/29 09:36:30;;;;;;;;;;;;;;;1.06;65.03;99730.31;1819812;79;21038;-78
2021/01/29 09:39:49;;;;;;;12.30;8.68;;;;;;;1.08;65.06;99729.81;1801484;79;20184;-75
2021/01/29 09:42:41;;;;;;;11.60;8.40;;;;;;;1.13;65.76;99726.16;1811879;78;21562;-74
2021/01/29 09:45:20;;;;;;;17.35;10.65;;;;;;;1.18;65.23;99728.60;1812738;79;21389;-77
2021/01/29 09:47:50;;;;;;;14.78;9.38;;;;;;;1.22;65.10;99734.02;1812507;79;20994;-74
2021/01/29 09:50:23;;;;;;;18.00;10.63;;;;;;;1.28;65.24;99735.56;1812797;79;21405;-74
2021/01/29 09:53:19;;;;;;;13.80;8.98;;;;;;;1.30;65.44;99732.02;1812692;79;21302;-75
2021/01/29 09:56:00;;;;;;;11.33;8.60;;;;;;;1.32;64.66;99740.55;1812741;79;21010;-73
2021/01/29 09:58:37;;;;;;;9.55;8.23;;;;;;;1.37;64.90;99734.77;1802028;78;20994;-75
2021/01/29 10:01:12;;;;;;;11.73;8.40;;;;;;;1.40;64.20;99748.02;1802608;78;20887;-75
2021/01/29 10:04:03;;;;;;;16.27;9.15;;;;;;;1.41;64.37;99749.26;1812808;78;21361;-74
2021/01/29 10:06:39;;;;;;;12.53;8.60;;;;;;;1.45;64.59;99741.80;1812767;78;22131;-73
2021/01/29 10:09:20;;;;;;;15.78;8.58;;;;;;;1.52;64.57;99738.99;1793678;80;21072;-74
2021/01/29 10:12:03;;;;;;;16.85;8.88;;;;;;;1.54;64.20;99735.45;1812759;79;20987;-75
2021/01/29 10:14:52;;;;;;;15.00;8.25;;;;;;;1.52;64.01;99738.53;1793658;78;20941;-74
2021/01/29 10:17:34;;;;;;;15.78;9.03;;;;;;;1.52;64.10;99737.70;1780895;79;20927;-75
2021/01/29 10:20:07;;;;;;;13.43;9.93;;;;;;;1.50;64.05;99727.87;1780807;79;21795;-73
2021/01/29 10:22:56;;;;;;;13.53;9.97;;;;;;;1.48;64.25;99740.84;1781608;79;21006;-75
2021/01/29 10:25:47;;;;;;;12.65;10.23;;;;;;;1.42;64.17;99730.72;1694686;83;21338;-75
2021/01/29 10:28:48;;;;;;;17.15;10.15;;;;;;;1.40;64.09;99737.68;1692747;83;21488;-74
2021/01/29 10:31:21;;;;;;;13.03;9.80;;;;;;;1.37;64.19;99737.80;1692553;83;21063;-75
2021/01/29 10:34:15;;;;;;;20.15;13.62;;;;;;;1.31;64.16;99729.84;1692737;83;22007;-74
2021/01/29 10:37:31;;;;;;;14.63;9.63;;;;;;;1.37;64.48;99719.27;1852371;77;22779;-77
2021/01/29 10:40:34;;;;;;;11.68;8.50;;;;;;;1.28;64.68;99717.02;1820191;78;21309;-74
2021/01/29 10:43:10;;;;;;;14.13;9.48;;;;;;;1.29;64.65;99710.11;1750057;81;21820;-75
2021/01/29 10:46:00;;;;;;;14.98;9.43;;;;;;;1.30;65.00;99708.77;1819951;78;20942;-73
2021/01/29 10:48:52;;;;;;;13.95;9.68;;;;;;;1.30;64.86;99704.90;1749296;81;21340;-74
2021/01/29 10:52:00;;;;;;;12.25;8.18;;;;;;;1.31;65.03;99694.11;1819934;78;20934;-75
2021/01/29 10:54:38;;;;;;;12.90;9.25;;;;;;;1.30;65.29;99691.15;1750155;81;20946;-74
2021/01/29 10:57:23;;;;;;;12.23;8.73;;;;;;;1.30;65.37;99683.41;1819971;78;22105;-76
2021/01/29 10:59:58;;;;;;;12.00;8.80;;;;;;;1.29;65.43;99685.58;1750039;81;20926;-77
2021/01/29 11:02:40;;;;;;;14.75;9.98;;;;;;;1.23;65.83;99669.42;1788705;78;21014;-75
2021/01/29 11:05:12;;;;;;;13.48;9.83;;;;;;;1.24;66.20;99672.41;1819892;78;21061;-76
2021/01/29 11:07:48;;;;;;;12.45;9.03;;;;;;;1.24;66.55;99671.55;1721361;82;21447;-77
2021/01/29 11:10:35;;;;;;;11.63;9.58;;;;;;;1.28;66.34;99666.66;1819991;78;22268;-75
2021/01/29 11:13:21;;;;;;;13.15;9.03;;;;;;;1.28;66.34;99663.25;1815707;78;21567;-77
2021/01/29 11:16:01;;;;;;;14.97;9.80;;;;;;;1.29;66.40;99661.05;1819710;78;21348;-75
2021/01/29 11:18:34;;;;;;;12.00;9.10;;;;;;;1.30;66.77;99660.16;1750090;81;21143;-77
2021/01/29 11:21:23;;;;;;;12.73;9.67;;;;;;;1.31;66.94;99660.54;1820225;78;21029;-76
2021/01/29 11:24:15;;;;;;;17.15;10.65;;;;;;;1.32;66.81;99648.87;1750141;81;21376;-76
2021/01/29 11:27:11;;;;;;;16.37;11.28;;;;;;;1.35;67.12;99647.45;1801753;78;20973;-77
2021/01/29 11:30:03;;;;;;;14.23;9.63;;;;;;;1.35;67.04;99647.45;1811890;78;21071;-73
2021/01/29 11:32:40;;;;;;;19.50;10.80;;;;;;;1.36;67.14;99649.15;1750225;81;21475;-72
2021/01/29 11:35:21;;;;;;;13.03;10.48;;;;;;;1.37;67.34;99647.40;1818595;78;21026;-74
2021/01/29 11:38:00;;;;;;;14.95;10.58;;;;;;;1.39;67.37;99641.73;1728034;83;21373;-73
2021/01/29 11:40:52;;;;;;;14.47;10.28;;;;;;;1.42;67.50;99645.47;1758079;81;21384;-76
2021/01/29 11:43:48;;;;;;;12.60;10.03;;;;;;;1.44;67.53;99644.51;1727964;81;21062;-76
2021/01/29 11:46:28;;;;;;;11.83;9.50;;;;;;;1.47;67.32;99641.42;1757989;80;20991;-75
2021/01/29 11:49:07;;;;;;;13.83;10.45;;;;;;;1.43;67.37;99645.88;1757630;81;21041;-77
2021/01/29 11:51:43;;;;;;;15.75;11.10;;;;;;;1.42;67.63;99637.30;1722366;81;22702;-75
2021/01/29 11:54:49;;;;;;;16.25;12.55;;;;;;;1.43;67.94;99631.67;1757512;81;20963;-71
2021/01/29 11:57:53;;;;;;;19.25;13.58;;;;;;;1.46;67.98;99634.13;1727495;83;20944;-72
2021/01/29 12:00:42;;;;;;;15.68;11.38;;;;;;;1.48;68.07;99636.20;1757562;81;20939;-73
2021/01/29 12:03:52;;;;;;;17.98;12.53;;;;;;;1.48;67.87;99623.28;1753993;81;20954;-75
2021/01/29 12:06:28;;;;;;;18.80;12.23;;;;;;;1.48;67.91;99620.70;1727193;83;21382;-70
2021/01/29 12:09:36;;;;;;;16.93;11.25;;;;;;;1.49;68.24;99626.28;1741600;81;21027;-74
2021/01/29 12:12:18;;;;;;;18.82;12.07;;;;;;;1.49;68.20;99628.86;1757553;81;21440;-71
2021/01/29 12:15:15;;;;;;;15.38;10.72;;;;;;;1.50;68.16;99636.98;1725901;83;21385;-74
2021/01/29 12:17:54;;;;;;;16.40;11.53;;;;;;;1.48;67.84;99640.54;1757548;81;20942;-75
2021/01/29 12:20:31;;;;;;;16.73;12.13;;;;;;;1.47;68.08;99624.62;1727301;82;21398;-73
2021/01/29 12:23:36;;;;;;;18.10;13.72;;;;;;;1.47;68.02;99625.50;1757736;80;21264;-73
2021/01/29 12:26:43;;;;;;;25.50;14.90;;;;;;;1.48;67.99;99616.00;1757737;81;21077;-72
2021/01/29 12:29:36;;;;;;;22.67;13.55;;;;;;;1.49;68.02;99617.23;1727433;81;21124;-72
2021/01/29 12:32:49;;;;;;;16.82;11.90;;;;;;;1.49;68.24;99608.20;1757273;80;21002;-72
2021/01/29 12:35:29;;;;;;;17.57;12.95;;;;;;;1.52;68.42;99612.40;1728678;82;21870;-76
2021/01/29 12:38:32;;;;;;;19.32;14.47;;;;;;;1.53;68.55;99617.94;1819363;78;20966;-73
2021/01/29 12:41:28;;;;;;;17.02;12.18;;;;;;;1.54;68.36;99604.97;1819306;78;20934;-74
2021/01/29 12:44:23;;;;;;;16.15;11.35;;;;;;;1.55;68.36;99603.22;1819408;78;20932;-73
2021/01/29 12:46:57;;;;;;;19.35;12.37;;;;;;;1.55;68.38;99592.43;1749713;82;20939;-73
2021/01/29 12:49:43;;;;;;;16.97;13.37;;;;;;;1.57;68.37;99595.80;1819544;78;21529;-73
2021/01/29 12:52:29;;;;;;;13.30;10.82;;;;;;;1.61;68.44;99593.48;1776873;79;22474;-75
2021/01/29 12:55:24;;;;;;;17.30;12.63;;;;;;;1.58;67.80;99591.03;1749547;81;20935;-74
2021/01/29 12:57:58;;;;;;;19.62;12.37;;;;;;;1.57;67.98;99583.33;1749828;82;21507;-74
2021/01/29 13:00:33;;;;;;;19.75;11.25;;;;;;;1.59;67.99;99585.41;1749400;80;21030;-76
2021/01/29 13:03:20;;;;;;;20.25;12.93;;;;;;;1.60;67.70;99584.06;1749200;82;21054;-76
2021/01/29 13:06:27;;;;;;;16.35;12.47;;;;;;;1.60;67.88;99587.08;1749562;82;20947;-75
2021/01/29 13:09:26;;;;;;;18.90;13.43;;;;;;;1.61;67.89;99580.56;1749651;82;20986;-76
2021/01/29 13:12:08;;;;;;;18.77;13.28;;;;;;;1.61;68.06;99566.81;1749639;82;22289;-68
2021/01/29 13:15:03;;;;;;;18.30;14.10;;;;;;;1.60;68.08;99563.39;1724669;82;20931;-70
2021/01/29 13:17:42;;;;;;;18.97;13.20;;;;;;;1.58;68.31;99564.33;1720019;83;20927;-68
2021/01/29 13:20:25;;;;;;;17.05;12.58;;;;;;;1.58;68.28;99560.45;1719710;83;21096;-72